createdAt,value
2019-01-29T00:02:29.307Z,99450.50
2019-01-29T00:05:00.220Z,99455.32
2019-01-29T00:07:31.175Z,99461.48
2019-01-29T00:10:02.142Z,99466.13
2019-01-29T00:12:34.734Z,99454.09
2019-01-29T00:15:06.489Z,99469.88
2019-01-29T00:17:37.377Z,99471.30
2019-01-29T00:20:10.122Z,99470.41
2019-01-29T00:22:41.403Z,99475.31
2019-01-29T00:25:13.232Z,99481.59
2019-01-29T00:27:44.483Z,99484.36
2019-01-29T00:30:15.728Z,99486.82
2019-01-29T00:32:46.653Z,99493.04
2019-01-29T00:35:17.871Z,99494.84
2019-01-29T00:37:48.812Z,99499.48
2019-01-29T00:40:19.788Z,99502.20
2019-01-29T00:42:50.725Z,99507.63
2019-01-29T00:45:21.637Z,99508.04
2019-01-29T00:47:52.561Z,99508.98
2019-01-29T00:50:23.479Z,99513.67
2019-01-29T00:52:54.513Z,99510.18
2019-01-29T00:55:25.427Z,99520.61
2019-01-29T00:57:56.323Z,99519.95
2019-01-29T01:00:27.811Z,99517.54
2019-01-29T01:02:58.724Z,99529.91
2019-01-29T01:05:29.789Z,99530.86
2019-01-29T01:08:00.683Z,99533.45
2019-01-29T01:10:31.577Z,99537.06
2019-01-29T01:13:02.793Z,99541.09
2019-01-29T01:15:33.989Z,99541.83
2019-01-29T01:18:05.058Z,99537.88
2019-01-29T01:20:35.980Z,99535.82
2019-01-29T01:23:07.314Z,99542.34
2019-01-29T01:25:38.517Z,99541.37
2019-01-29T01:28:09.495Z,99546.53
2019-01-29T01:30:40.474Z,99552.83
2019-01-29T01:33:11.360Z,99555.38
2019-01-29T01:35:42.324Z,99558.43
2019-01-29T01:38:13.544Z,99565.63
2019-01-29T01:40:44.432Z,99563.86
2019-01-29T01:43:15.358Z,99563.77
2019-01-29T01:45:46.528Z,99568.42
2019-01-29T01:48:17.433Z,99565.55
2019-01-29T01:50:48.639Z,99568.47
2019-01-29T01:53:19.537Z,99567.01
2019-01-29T01:55:50.470Z,99563.86
2019-01-29T01:58:21.364Z,99574.34
2019-01-29T02:00:52.731Z,99567.05
2019-01-29T02:03:23.636Z,99566.14
2019-01-29T02:05:54.601Z,99574.02
2019-01-29T02:08:25.582Z,99582.67
2019-01-29T02:10:56.625Z,99582.15
2019-01-29T02:13:27.622Z,99581.51
2019-01-29T02:15:58.934Z,99590.22
2019-01-29T02:18:29.811Z,99599.28
2019-01-29T02:21:00.746Z,99599.78
2019-01-29T02:23:31.683Z,99601.47
2019-01-29T02:26:02.595Z,99601.70
2019-01-29T02:28:33.524Z,99602.42
2019-01-29T02:31:05.085Z,99608.49
2019-01-29T02:33:36.013Z,99612.41
2019-01-29T02:36:07.005Z,99611.13
2019-01-29T02:38:37.917Z,99611.83
2019-01-29T02:41:09.192Z,99617.84
2019-01-29T02:43:40.176Z,99619.89
2019-01-29T02:46:11.341Z,99618.39
2019-01-29T02:48:42.236Z,99616.06
2019-01-29T02:51:13.191Z,99616.61
2019-01-29T02:53:44.120Z,99622.36
2019-01-29T02:56:15.029Z,99623.95
2019-01-29T02:58:45.965Z,99623.80
2019-01-29T03:01:17.008Z,99631.38
2019-01-29T03:03:47.906Z,99630.42
2019-01-29T03:06:19.046Z,99626.23
2019-01-29T03:08:49.941Z,99639.67
2019-01-29T03:11:20.977Z,99632.19
2019-01-29T03:13:51.889Z,99635.13
2019-01-29T03:16:22.766Z,99632.88
2019-01-29T03:18:53.710Z,99642.83
2019-01-29T03:21:24.598Z,99644.32
2019-01-29T03:23:55.824Z,99646.30
2019-01-29T03:26:27.087Z,99649.11
2019-01-29T03:28:57.986Z,99651.45
2019-01-29T03:31:28.933Z,99655.50
2019-01-29T03:33:59.922Z,99658.02
2019-01-29T03:36:30.839Z,99658.37
2019-01-29T03:39:01.728Z,99646.98
2019-01-29T03:41:32.912Z,99655.24
2019-01-29T03:44:03.843Z,99661.80
2019-01-29T03:46:34.800Z,99664.18
2019-01-29T03:49:05.926Z,99672.76
2019-01-29T03:51:36.815Z,99684.98
2019-01-29T03:54:07.829Z,99680.23
2019-01-29T03:56:38.817Z,99688.72
2019-01-29T03:59:09.708Z,99692.41
2019-01-29T04:01:40.758Z,99689.03
2019-01-29T04:04:11.661Z,99690.26
2019-01-29T04:06:42.634Z,99690.89
2019-01-29T04:09:13.729Z,99693.73
2019-01-29T04:11:44.660Z,99695.64
2019-01-29T04:14:15.634Z,99698.91
2019-01-29T04:16:46.515Z,99695.45
2019-01-29T04:19:17.399Z,99695.29
2019-01-29T04:21:48.313Z,99693.48
2019-01-29T04:24:19.285Z,99697.93
2019-01-29T04:26:50.263Z,99698.17
2019-01-29T04:29:21.134Z,99701.59
2019-01-29T04:31:52.014Z,99699.70
2019-01-29T04:34:22.933Z,99705.17
2019-01-29T04:36:53.978Z,99710.52
2019-01-29T04:39:25.210Z,99719.09
2019-01-29T04:41:56.380Z,99711.97
2019-01-29T04:44:27.330Z,99710.40
2019-01-29T04:46:58.624Z,99710.70
2019-01-29T04:49:29.829Z,99717.16
2019-01-29T04:52:01.054Z,99713.70
2019-01-29T04:54:31.998Z,99713.57
2019-01-29T04:57:02.956Z,99727.16
2019-01-29T04:59:34.180Z,99729.09
2019-01-29T05:02:05.187Z,99737.98
2019-01-29T05:04:36.154Z,99732.22
2019-01-29T05:07:07.418Z,99739.63
2019-01-29T05:09:38.297Z,99735.31
2019-01-29T05:12:09.507Z,99730.17
2019-01-29T05:14:40.432Z,99735.84
2019-01-29T05:17:11.471Z,99727.56
2019-01-29T05:19:42.740Z,99733.67
2019-01-29T05:22:13.612Z,99737.16
2019-01-29T05:24:44.540Z,99739.59
2019-01-29T05:27:15.743Z,99734.66
2019-01-29T05:29:46.747Z,99741.94
2019-01-29T05:32:17.641Z,99742.44
2019-01-29T05:34:48.520Z,99741.70
2019-01-29T05:37:19.811Z,99737.20
2019-01-29T05:39:50.684Z,99737.95
2019-01-29T05:42:21.708Z,99743.72
2019-01-29T05:44:52.593Z,99751.91
2019-01-29T05:47:23.494Z,99754.33
2019-01-29T05:49:54.478Z,99757.08
2019-01-29T05:52:25.383Z,99750.91
2019-01-29T05:54:56.621Z,99755.69
2019-01-29T05:57:27.613Z,99761.65
2019-01-29T05:59:58.501Z,99761.53
2019-01-29T06:02:29.755Z,99763.34
2019-01-29T06:05:00.668Z,99762.27
2019-01-29T06:07:31.587Z,99768.87
2019-01-29T06:10:02.506Z,99769.24
2019-01-29T06:12:33.480Z,99771.08
2019-01-29T06:15:04.564Z,99773.22
2019-01-29T06:17:35.475Z,99772.47
2019-01-29T06:20:09.478Z,99773.52
2019-01-29T06:22:40.362Z,99778.78
2019-01-29T06:25:11.442Z,99783.95
2019-01-29T06:27:42.530Z,99782.94
2019-01-29T06:30:15.000Z,99787.22
2019-01-29T06:32:45.946Z,99790.86
2019-01-29T06:35:23.553Z,99789.84
2019-01-29T06:37:54.662Z,99788.53
2019-01-29T06:40:27.945Z,99797.31
2019-01-29T06:42:59.188Z,99801.47
2019-01-29T06:45:30.099Z,99805.12
2019-01-29T06:48:00.985Z,99806.95
2019-01-29T06:50:32.317Z,99807.89
2019-01-29T06:53:03.484Z,99805.72
2019-01-29T06:55:34.458Z,99807.37
2019-01-29T06:58:05.792Z,99809.62
2019-01-29T07:00:36.815Z,99808.34
2019-01-29T07:03:07.833Z,99808.57
2019-01-29T07:05:38.810Z,99804.63
2019-01-29T07:08:09.771Z,99810.93
2019-01-29T07:10:40.674Z,99813.19
2019-01-29T07:13:11.943Z,99804.70
2019-01-29T07:16:12.548Z,99812.92
2019-01-29T07:18:46.567Z,99809.58
2019-01-29T07:21:17.484Z,99809.58
2019-01-29T07:23:48.402Z,99808.19
2019-01-29T07:26:19.327Z,99815.20
2019-01-29T07:28:50.564Z,99816.02
2019-01-29T07:31:21.437Z,99812.11
2019-01-29T07:33:52.632Z,99814.13
2019-01-29T07:36:23.533Z,99819.57
2019-01-29T07:38:54.811Z,99819.25
2019-01-29T07:41:25.711Z,99821.06
2019-01-29T07:43:56.607Z,99816.41
2019-01-29T07:46:27.548Z,99824.81
2019-01-29T07:48:58.465Z,99830.38
2019-01-29T07:51:29.487Z,99828.48
2019-01-29T07:54:00.375Z,99824.90
2019-01-29T07:56:31.259Z,99830.41
2019-01-29T07:59:02.185Z,99831.28
2019-01-29T08:01:33.140Z,99836.75
2019-01-29T08:04:04.113Z,99832.33
2019-01-29T08:06:35.038Z,99836.16
2019-01-29T08:09:10.445Z,99844.91
2019-01-29T08:11:41.361Z,99843.84
2019-01-29T08:14:12.312Z,99849.83
2019-01-29T08:16:43.288Z,99844.02
2019-01-29T08:19:14.191Z,99854.14
2019-01-29T08:21:45.143Z,99853.83
2019-01-29T08:24:16.319Z,99861.90
2019-01-29T08:26:47.505Z,99848.58
2019-01-29T08:29:18.468Z,99854.59
2019-01-29T08:31:49.343Z,99859.69
2019-01-29T08:34:20.551Z,99855.86
2019-01-29T08:36:51.455Z,99858.22
2019-01-29T08:39:22.458Z,99849.62
2019-01-29T08:41:53.756Z,99851.52
2019-01-29T08:44:24.945Z,99848.67
2019-01-29T08:46:55.876Z,99853.97
2019-01-29T08:49:26.807Z,99863.64
2019-01-29T08:51:57.740Z,99861.27
2019-01-29T08:54:28.666Z,99860.25
2019-01-29T08:56:59.550Z,99867.20
2019-01-29T08:59:30.487Z,99867.66
2019-01-29T09:02:01.390Z,99870.64
2019-01-29T09:04:32.387Z,99873.73
2019-01-29T09:07:03.304Z,99869.73
2019-01-29T09:09:34.186Z,99872.44
2019-01-29T09:12:05.146Z,99871.52
2019-01-29T09:14:36.036Z,99875.02
2019-01-29T09:17:06.961Z,99875.42
2019-01-29T09:19:37.884Z,99873.72
2019-01-29T09:22:09.083Z,99873.00
2019-01-29T09:24:40.016Z,99873.41
2019-01-29T09:27:10.908Z,99876.08
2019-01-29T09:29:41.855Z,99877.50
2019-01-29T09:32:13.294Z,99874.89
2019-01-29T09:34:44.180Z,99875.66
2019-01-29T09:37:15.132Z,99876.69
2019-01-29T09:39:46.764Z,99877.00
2019-01-29T09:42:17.647Z,99878.20
2019-01-29T09:44:48.956Z,99875.38
2019-01-29T09:47:20.231Z,99871.72
2019-01-29T09:49:51.177Z,99874.28
2019-01-29T09:52:22.073Z,99872.75
2019-01-29T09:54:52.961Z,99870.25
2019-01-29T09:57:24.139Z,99873.00
2019-01-29T09:59:55.032Z,99874.23
2019-01-29T10:02:25.965Z,99879.56
2019-01-29T10:04:56.879Z,99878.02
2019-01-29T10:07:27.782Z,99881.47
2019-01-29T10:09:58.778Z,99878.53
2019-01-29T10:12:29.693Z,99882.08
2019-01-29T10:15:00.630Z,99881.47
2019-01-29T10:17:31.914Z,99881.09
2019-01-29T10:20:03.363Z,99875.83
2019-01-29T10:22:34.438Z,99871.06
2019-01-29T10:25:06.238Z,99870.40
2019-01-29T10:27:37.163Z,99873.67
2019-01-29T10:30:09.747Z,99868.30
2019-01-29T10:32:40.638Z,99872.24
2019-01-29T10:35:15.534Z,99868.66
2019-01-29T10:37:46.447Z,99863.46
2019-01-29T10:40:20.544Z,99857.61
2019-01-29T10:42:51.788Z,99854.69
2019-01-29T10:45:25.576Z,99851.27
2019-01-29T10:47:56.528Z,99851.45
2019-01-29T10:50:29.613Z,99844.67
2019-01-29T10:53:00.750Z,99848.73
2019-01-29T10:55:31.735Z,99851.70
2019-01-29T10:58:02.665Z,99848.56
2019-01-29T11:00:37.822Z,99842.01
2019-01-29T11:03:11.221Z,99840.67
2019-01-29T11:05:42.421Z,99844.59
2019-01-29T11:08:13.310Z,99844.59
2019-01-29T11:10:44.265Z,99839.74
2019-01-29T11:13:15.234Z,99840.34
2019-01-29T11:15:46.225Z,99838.07
2019-01-29T11:18:17.799Z,99832.00
2019-01-29T11:20:48.755Z,99830.44
2019-01-29T11:23:19.628Z,99831.13
2019-01-29T11:25:55.802Z,99824.70
2019-01-29T11:28:23.167Z,99822.23
2019-01-29T11:30:54.078Z,99819.76
2019-01-29T11:33:25.109Z,99815.20
2019-01-29T11:35:56.013Z,99813.38
2019-01-29T11:38:27.000Z,99814.17
2019-01-29T11:40:57.928Z,99817.87
2019-01-29T11:43:29.134Z,99815.68
2019-01-29T11:46:00.330Z,99814.57
2019-01-29T11:48:31.215Z,99817.98
2019-01-29T11:51:02.160Z,99815.17
2019-01-29T11:53:33.096Z,99818.53
2019-01-29T11:56:04.946Z,99816.20
2019-01-29T11:58:36.352Z,99816.12
2019-01-29T12:01:11.803Z,99817.87
2019-01-29T12:03:42.803Z,99826.59
2019-01-29T12:06:14.228Z,99820.27
2019-01-29T12:08:45.431Z,99815.54
2019-01-29T12:11:16.444Z,99817.85
2019-01-29T12:13:47.480Z,99816.34
2019-01-29T12:16:19.618Z,99815.89
2019-01-29T12:18:50.634Z,99811.18
2019-01-29T12:21:21.967Z,99810.92
2019-01-29T12:23:52.872Z,99810.55
2019-01-29T12:26:24.096Z,99810.74
2019-01-29T12:28:55.301Z,99810.68
2019-01-29T12:31:26.246Z,99815.73
2019-01-29T12:33:57.157Z,99805.93
2019-01-29T12:36:28.419Z,99803.06
2019-01-29T12:38:59.655Z,99803.55
2019-01-29T12:41:30.640Z,99801.88
2019-01-29T12:44:01.929Z,99805.89
2019-01-29T12:46:33.137Z,99799.34
2019-01-29T12:49:04.158Z,99793.73
2019-01-29T12:51:43.112Z,99798.52
2019-01-29T12:54:14.375Z,99794.02
2019-01-29T12:56:45.381Z,99794.76
2019-01-29T12:59:16.332Z,99794.73
2019-01-29T13:01:47.406Z,99792.17
2019-01-29T13:04:18.749Z,99786.92
2019-01-29T13:06:49.641Z,99786.87
2019-01-29T13:09:20.688Z,99788.03
2019-01-29T13:11:51.666Z,99791.48
2019-01-29T13:14:22.574Z,99789.45
2019-01-29T13:16:53.817Z,99783.27
2019-01-29T13:19:24.707Z,99784.39
2019-01-29T13:21:55.644Z,99779.60
2019-01-29T13:24:26.555Z,99776.59
2019-01-29T13:26:57.467Z,99778.03
2019-01-29T13:29:28.400Z,99771.00
2019-01-29T13:31:59.302Z,99772.27
2019-01-29T13:34:30.250Z,99770.69
2019-01-29T13:37:01.145Z,99775.83
2019-01-29T13:39:32.065Z,99771.99
2019-01-29T13:42:03.317Z,99777.63
2019-01-29T13:44:34.216Z,99770.40
2019-01-29T13:47:05.278Z,99768.84
2019-01-29T13:49:36.179Z,99774.37
2019-01-29T13:52:07.108Z,99780.08
2019-01-29T13:54:38.018Z,99778.80
2019-01-29T13:57:08.926Z,99770.77
2019-01-29T13:59:39.872Z,99769.25
2019-01-29T14:02:11.039Z,99775.55
2019-01-29T14:04:42.004Z,99777.98
2019-01-29T14:07:13.234Z,99778.51
2019-01-29T14:09:44.129Z,99776.45
2019-01-29T14:12:15.147Z,99779.09
2019-01-29T14:14:46.373Z,99776.69
2019-01-29T14:17:17.380Z,99778.03
2019-01-29T14:19:48.274Z,99769.59
2019-01-29T14:22:19.419Z,99771.91
2019-01-29T14:24:50.387Z,99766.55
2019-01-29T14:27:21.285Z,99766.50
2019-01-29T14:29:52.260Z,99768.26
2019-01-29T14:32:23.161Z,99762.44
2019-01-29T14:34:54.139Z,99762.44
2019-01-29T14:37:25.052Z,99760.62
2019-01-29T14:40:20.422Z,99754.69
2019-01-29T14:42:52.159Z,99753.81
2019-01-29T14:45:26.665Z,99755.42
2019-01-29T14:47:57.657Z,99750.58
2019-01-29T14:50:29.912Z,99748.67
2019-01-29T14:53:01.249Z,99748.27
2019-01-29T14:55:32.186Z,99751.11
2019-01-29T14:58:03.169Z,99751.72
2019-01-29T15:00:34.388Z,99749.78
2019-01-29T15:03:05.329Z,99748.84
2019-01-29T15:05:36.575Z,99743.79
2019-01-29T15:08:08.102Z,99734.23
2019-01-29T15:10:39.107Z,99732.02
2019-01-29T15:13:10.155Z,99732.95
2019-01-29T15:15:47.759Z,99734.11
2019-01-29T15:18:25.213Z,99722.81
2019-01-29T15:20:56.390Z,99725.62
2019-01-29T15:23:27.353Z,99725.50
2019-01-29T15:25:58.306Z,99727.83
2019-01-29T15:28:29.592Z,99724.33
2019-01-29T15:31:00.510Z,99728.35
2019-01-29T15:33:31.702Z,99732.02
2019-01-29T15:36:02.945Z,99730.81
2019-01-29T15:38:34.190Z,99728.30
2019-01-29T15:41:06.674Z,99725.89
2019-01-29T15:43:37.954Z,99717.56
2019-01-29T15:46:08.869Z,99725.45
2019-01-29T15:48:40.126Z,99724.78
2019-01-29T15:51:11.312Z,99722.59
2019-01-29T15:53:42.216Z,99712.93
2019-01-29T15:56:13.449Z,99714.41
2019-01-29T15:58:44.349Z,99712.16
2019-01-29T16:01:15.309Z,99711.75
2019-01-29T16:03:46.188Z,99713.84
2019-01-29T16:06:17.092Z,99710.83
2019-01-29T16:08:48.336Z,99715.42
2019-01-29T16:11:19.311Z,99707.74
2019-01-29T16:13:50.352Z,99710.30
2019-01-29T16:16:21.272Z,99710.42
2019-01-29T16:18:52.183Z,99708.01
2019-01-29T16:21:23.185Z,99704.53
2019-01-29T16:23:54.342Z,99706.28
2019-01-29T16:26:25.296Z,99702.89
2019-01-29T16:28:56.938Z,99701.97
2019-01-29T16:31:28.415Z,99697.52
2019-01-29T16:33:59.376Z,99700.76
2019-01-29T16:36:30.375Z,99695.02
2019-01-29T16:39:01.307Z,99693.59
2019-01-29T16:41:32.345Z,99690.42
2019-01-29T16:44:03.631Z,99688.01
2019-01-29T16:46:34.534Z,99681.11
2019-01-29T16:49:05.436Z,99689.03
2019-01-29T16:51:42.198Z,99682.39
2019-01-29T16:54:09.292Z,99686.13
2019-01-29T16:56:40.279Z,99676.76
2019-01-29T16:59:11.213Z,99683.58
2019-01-29T17:01:42.475Z,99679.10
2019-01-29T17:04:13.717Z,99680.74
2019-01-29T17:06:44.614Z,99680.20
2019-01-29T17:09:16.032Z,99678.95
2019-01-29T17:11:46.959Z,99676.16
2019-01-29T17:14:17.930Z,99676.48
2019-01-29T17:16:48.890Z,99674.98
2019-01-29T17:19:19.783Z,99673.93
2019-01-29T17:21:50.849Z,99668.72
2019-01-29T17:24:21.789Z,99667.89
2019-01-29T17:26:52.786Z,99663.84
2019-01-29T17:29:23.798Z,99663.13
2019-01-29T17:31:54.760Z,99659.81
2019-01-29T17:34:25.729Z,99662.44
2019-01-29T17:36:56.635Z,99656.41
2019-01-29T17:39:27.658Z,99664.47
2019-01-29T17:41:58.879Z,99662.45
2019-01-29T17:44:29.822Z,99658.03
2019-01-29T17:47:00.781Z,99656.88
2019-01-29T17:49:31.706Z,99654.44
2019-01-29T17:52:02.679Z,99654.14
2019-01-29T17:54:33.599Z,99656.80
2019-01-29T17:57:04.668Z,99658.83
2019-01-29T17:59:37.285Z,99646.56
2019-01-29T18:02:09.126Z,99647.88
2019-01-29T18:04:40.091Z,99643.34
2019-01-29T18:07:11.013Z,99645.14
2019-01-29T18:09:41.968Z,99648.11
2019-01-29T18:12:12.962Z,99645.22
2019-01-29T18:14:44.218Z,99643.98
2019-01-29T18:17:15.830Z,99638.58
2019-01-29T18:19:47.168Z,99645.89
2019-01-29T18:22:18.158Z,99635.42
2019-01-29T18:24:49.122Z,99641.48
2019-01-29T18:27:20.319Z,99633.19
2019-01-29T18:29:51.599Z,99624.34
2019-01-29T18:32:22.809Z,99631.20
2019-01-29T18:34:55.865Z,99627.03
2019-01-29T18:37:27.367Z,99630.89
2019-01-29T18:40:00.126Z,99633.91
2019-01-29T18:42:31.077Z,99631.98
2019-01-29T18:45:02.405Z,99628.92
2019-01-29T18:47:33.373Z,99624.97
2019-01-29T18:50:06.046Z,99621.18
2019-01-29T18:52:38.083Z,99624.66
2019-01-29T18:55:10.046Z,99619.02
2019-01-29T18:57:41.244Z,99610.00
2019-01-29T19:00:21.984Z,99613.98
2019-01-29T19:02:53.548Z,99611.89
2019-01-29T19:05:25.941Z,99609.79
2019-01-29T19:07:56.951Z,99607.41
2019-01-29T19:10:28.167Z,99606.23
2019-01-29T19:13:00.387Z,99609.30
2019-01-29T19:15:31.368Z,99608.66
2019-01-29T19:18:02.467Z,99612.25
2019-01-29T19:20:33.356Z,99609.36
2019-01-29T19:23:04.273Z,99603.48
2019-01-29T19:25:35.931Z,99606.47
2019-01-29T19:28:06.937Z,99607.33
2019-01-29T19:30:38.215Z,99597.52
2019-01-29T19:33:09.284Z,99607.36
2019-01-29T19:35:42.558Z,99597.69
2019-01-29T19:38:13.460Z,99601.34
2019-01-29T19:40:44.386Z,99603.00
2019-01-29T19:43:16.406Z,99594.66
2019-01-29T19:45:50.030Z,99601.92
2019-01-29T19:48:21.342Z,99602.62
2019-01-29T19:50:52.255Z,99598.80
2019-01-29T19:53:23.435Z,99597.14
2019-01-29T19:55:54.376Z,99595.59
2019-01-29T19:58:31.992Z,99590.97
2019-01-29T20:01:00.217Z,99595.52
2019-01-29T20:03:31.739Z,99590.50
2019-01-29T20:06:02.654Z,99594.00
2019-01-29T20:08:33.898Z,99597.49
2019-01-29T20:11:05.198Z,99592.75
2019-01-29T20:13:39.236Z,99594.44
2019-01-29T20:16:09.712Z,99591.80
2019-01-29T20:18:40.948Z,99593.30
2019-01-29T20:21:11.873Z,99584.42
2019-01-29T20:23:42.828Z,99577.33
2019-01-29T20:26:13.863Z,99581.40
2019-01-29T20:28:47.496Z,99580.60
2019-01-29T20:31:18.840Z,99586.52
2019-01-29T20:33:50.126Z,99577.64
2019-01-29T20:36:21.036Z,99570.48
2019-01-29T20:38:51.983Z,99574.37
2019-01-29T20:41:22.888Z,99569.38
2019-01-29T20:43:53.955Z,99578.02
2019-01-29T20:46:24.898Z,99573.04
2019-01-29T20:48:57.526Z,99569.17
2019-01-29T20:51:29.554Z,99571.71
2019-01-29T20:54:03.049Z,99565.06
2019-01-29T20:56:34.315Z,99563.43
2019-01-29T20:59:05.358Z,99559.73
2019-01-29T21:01:36.356Z,99565.29
2019-01-29T21:04:07.412Z,99560.17
2019-01-29T21:06:38.310Z,99558.08
2019-01-29T21:09:11.024Z,99560.92
2019-01-29T21:11:42.247Z,99555.69
2019-01-29T21:14:13.196Z,99558.31
2019-01-29T21:16:44.438Z,99555.39
2019-01-29T21:19:15.362Z,99553.73
2019-01-29T21:21:46.745Z,99546.25
2019-01-29T21:24:19.865Z,99547.66
2019-01-29T21:26:50.881Z,99539.23
2019-01-29T21:29:22.667Z,99542.29
2019-01-29T21:31:53.647Z,99539.75
2019-01-29T21:34:24.573Z,99540.98
2019-01-29T21:36:56.394Z,99535.28
2019-01-29T21:39:27.618Z,99530.31
2019-01-29T21:41:58.648Z,99527.83
2019-01-29T21:44:29.601Z,99533.94
2019-01-29T21:47:00.523Z,99530.09
2019-01-29T21:49:31.428Z,99529.72
2019-01-29T21:52:02.357Z,99526.41
2019-01-29T21:54:33.843Z,99532.41
2019-01-29T21:57:05.078Z,99523.39
2019-01-29T21:59:35.967Z,99520.91
2019-01-29T22:02:07.313Z,99521.32
2019-01-29T22:04:38.222Z,99517.51
2019-01-29T22:07:09.124Z,99512.06
2019-01-29T22:09:40.087Z,99506.53
2019-01-29T22:12:11.023Z,99511.04
2019-01-29T22:14:42.354Z,99512.08
2019-01-29T22:17:13.329Z,99512.02
2019-01-29T22:19:44.531Z,99504.09
2019-01-29T22:22:15.463Z,99496.03
2019-01-29T22:24:46.371Z,99497.88
2019-01-29T22:27:17.555Z,99496.23
2019-01-29T22:29:48.804Z,99492.50
2019-01-29T22:32:19.704Z,99490.43
2019-01-29T22:34:50.731Z,99487.50
2019-01-29T22:37:21.643Z,99486.64
2019-01-29T22:39:52.570Z,99486.64
2019-01-29T22:42:23.490Z,99481.70
2019-01-29T22:44:54.661Z,99477.89
2019-01-29T22:47:25.618Z,99478.78
2019-01-29T22:49:56.511Z,99482.67
2019-01-29T22:52:27.769Z,99478.00
2019-01-29T22:54:58.724Z,99475.52
2019-01-29T22:57:29.616Z,99477.89
2019-01-29T23:00:00.682Z,99475.87
2019-01-29T23:02:31.916Z,99472.02
2019-01-29T23:05:02.806Z,99474.86
2019-01-29T23:07:38.123Z,99475.01
2019-01-29T23:10:16.109Z,99473.33
2019-01-29T23:12:47.156Z,99468.57
2019-01-29T23:15:19.931Z,99468.06
2019-01-29T23:17:53.063Z,99464.25
2019-01-29T23:20:23.675Z,99463.21
2019-01-29T23:22:54.569Z,99454.95
2019-01-29T23:25:25.537Z,99446.40
2019-01-29T23:27:56.453Z,99449.00
2019-01-29T23:30:27.461Z,99441.31
2019-01-29T23:32:58.432Z,99435.84
2019-01-29T23:35:29.328Z,99431.21
2019-01-29T23:38:00.283Z,99434.29
2019-01-29T23:40:31.178Z,99430.41
2019-01-29T23:43:02.090Z,99425.42
2019-01-29T23:45:33.049Z,99423.33
2019-01-29T23:48:04.013Z,99418.62
2019-01-29T23:50:34.947Z,99418.81
2019-01-29T23:53:05.984Z,99413.95
2019-01-29T23:55:36.898Z,99410.62
2019-01-29T23:58:07.949Z,99405.05
